createdAt,value
2023-01-02T00:02:02.018Z,61.93
2023-01-02T00:04:32.237Z,62.14
2023-01-02T00:07:03.862Z,62.23
2023-01-02T00:09:36.149Z,62.28
2023-01-02T00:12:11.480Z,62.42
2023-01-02T00:14:45.841Z,62.53
2023-01-02T00:17:17.679Z,62.55
2023-01-02T00:19:47.001Z,62.62
2023-01-02T00:22:18.531Z,62.72
2023-01-02T00:24:47.952Z,62.85
2023-01-02T00:27:17.561Z,63.14
2023-01-02T00:29:47.525Z,63.26
2023-01-02T00:32:17.473Z,63.44
2023-01-02T00:34:52.373Z,63.53
2023-01-02T00:37:22.191Z,63.61
2023-01-02T00:39:52.055Z,63.83
2023-01-02T00:42:21.984Z,63.81
2023-01-02T00:44:51.528Z,63.98
2023-01-02T00:47:21.247Z,64.13
2023-01-02T00:49:51.119Z,64.17
2023-01-02T00:52:20.920Z,64.14
2023-01-02T00:54:50.737Z,64.30
2023-01-02T00:57:20.763Z,64.40
2023-01-02T00:59:53.993Z,64.49
2023-01-02T01:02:23.959Z,64.47
2023-01-02T01:04:53.804Z,64.59
2023-01-02T01:07:23.808Z,64.65
2023-01-02T01:09:53.461Z,64.81
2023-01-02T01:12:23.301Z,64.84
2023-01-02T01:14:53.069Z,64.81
2023-01-02T01:17:22.808Z,64.80
2023-01-02T01:19:54.928Z,64.72
2023-01-02T01:22:24.548Z,64.84
2023-01-02T01:24:54.283Z,65.07
2023-01-02T01:27:24.282Z,65.09
2023-01-02T01:29:54.250Z,64.99
2023-01-02T01:32:23.886Z,65.02
2023-01-02T01:34:56.277Z,65.01
2023-01-02T01:37:26.209Z,65.01
2023-01-02T01:39:56.991Z,65.17
2023-01-02T01:42:35.705Z,65.04
2023-01-02T01:45:15.342Z,65.20
2023-01-02T01:47:55.377Z,64.96
2023-01-02T01:50:33.772Z,65.04
2023-01-02T01:53:16.637Z,65.15
2023-01-02T01:56:02.411Z,64.99
2023-01-02T01:58:46.391Z,64.93
2023-01-02T02:01:17.995Z,64.84
2023-01-02T02:03:50.836Z,64.80
2023-01-02T02:06:21.086Z,64.75
2023-01-02T02:09:12.397Z,64.77
2023-01-02T02:11:43.396Z,64.78
2023-01-02T02:14:13.184Z,64.76
2023-01-02T02:17:23.110Z,64.72
2023-01-02T02:20:10.743Z,64.86
2023-01-02T02:23:23.807Z,65.02
2023-01-02T02:26:33.565Z,65.13
2023-01-02T02:29:27.746Z,65.15
2023-01-02T02:32:28.227Z,65.30
2023-01-02T02:35:44.085Z,65.44
2023-01-02T02:38:45.411Z,65.49
2023-01-02T02:41:47.357Z,65.46
2023-01-02T02:44:43.891Z,65.59
2023-01-02T02:47:34.672Z,65.66
2023-01-02T02:50:16.312Z,65.76
2023-01-02T02:53:28.846Z,65.84
2023-01-02T02:56:02.769Z,65.74
2023-01-02T02:58:35.123Z,65.88
2023-01-02T03:01:14.541Z,66.02
2023-01-02T03:03:44.352Z,65.91
2023-01-02T03:06:30.376Z,65.90
2023-01-02T03:09:41.625Z,65.74
2023-01-02T03:12:31.627Z,65.76
2023-01-02T03:15:25.167Z,65.71
2023-01-02T03:18:19.418Z,65.89
2023-01-02T03:21:18.230Z,65.88
2023-01-02T03:23:49.598Z,65.81
2023-01-02T03:26:28.112Z,65.80
2023-01-02T03:29:10.662Z,66.03
2023-01-02T03:31:42.733Z,66.09
2023-01-02T03:34:22.208Z,66.16
2023-01-02T03:37:00.689Z,66.24
2023-01-02T03:39:35.671Z,66.32
2023-01-02T03:42:16.884Z,66.32
2023-01-02T03:44:59.653Z,66.49
2023-01-02T03:47:39.035Z,66.55
2023-01-02T03:50:21.213Z,66.57
2023-01-02T03:52:55.490Z,66.63
2023-01-02T03:55:27.817Z,66.72
2023-01-02T03:58:23.084Z,66.75
2023-01-02T04:01:04.897Z,66.88
2023-01-02T04:04:00.474Z,66.99
2023-01-02T04:06:37.922Z,67.06
2023-01-02T04:09:17.358Z,67.18
2023-01-02T04:11:52.769Z,67.19
2023-01-02T04:14:33.926Z,67.08
2023-01-02T04:17:08.508Z,67.04
2023-01-02T04:19:56.077Z,67.19
2023-01-02T04:22:36.344Z,67.25
2023-01-02T04:25:17.335Z,67.26
2023-01-02T04:27:58.815Z,67.32
2023-01-02T04:30:35.816Z,67.23
2023-01-02T04:33:10.512Z,67.43
2023-01-02T04:35:39.961Z,67.48
2023-01-02T04:38:12.859Z,67.39
2023-01-02T04:40:42.434Z,67.46
2023-01-02T04:43:21.686Z,67.40
2023-01-02T04:45:51.428Z,67.38
2023-01-02T04:48:20.560Z,67.40
2023-01-02T04:50:50.157Z,67.39
2023-01-02T04:53:19.874Z,67.30
2023-01-02T04:55:49.495Z,67.37
2023-01-02T04:58:18.907Z,67.39
2023-01-02T05:00:48.324Z,67.51
2023-01-02T05:03:17.625Z,67.42
2023-01-02T05:05:47.304Z,67.40
2023-01-02T05:08:16.865Z,67.53
2023-01-02T05:10:46.104Z,67.46
2023-01-02T05:13:15.395Z,67.38
2023-01-02T05:15:44.669Z,67.36
2023-01-02T05:18:13.939Z,67.36
2023-01-02T05:20:43.228Z,67.39
2023-01-02T05:23:32.654Z,67.48
2023-01-02T05:26:01.824Z,67.51
2023-01-02T05:28:35.166Z,67.60
2023-01-02T05:31:07.942Z,67.61
2023-01-02T05:33:38.032Z,67.62
2023-01-02T05:36:11.281Z,67.73
2023-01-02T05:38:47.024Z,67.72
2023-01-02T05:41:17.741Z,67.60
2023-01-02T05:43:47.260Z,67.45
2023-01-02T05:46:21.272Z,67.49
2023-01-02T05:48:53.012Z,67.39
2023-01-02T05:51:22.381Z,67.47
2023-01-02T05:53:57.733Z,67.53
2023-01-02T05:56:29.236Z,67.45
2023-01-02T05:58:58.436Z,67.50
2023-01-02T06:01:30.135Z,67.60
2023-01-02T06:04:00.794Z,67.62
2023-01-02T06:06:34.277Z,67.59
2023-01-02T06:09:06.506Z,67.55
2023-01-02T06:11:36.897Z,67.64
2023-01-02T06:14:11.100Z,67.56
2023-01-02T06:16:42.670Z,67.65
2023-01-02T06:19:13.695Z,67.59
2023-01-02T06:21:43.441Z,67.55
2023-01-02T06:24:13.212Z,67.59
2023-01-02T06:26:46.327Z,67.65
2023-01-02T06:29:20.439Z,67.72
2023-01-02T06:32:00.640Z,67.63
2023-01-02T06:34:34.634Z,67.55
2023-01-02T06:37:21.885Z,67.61
2023-01-02T06:40:05.428Z,67.69
2023-01-02T06:42:47.017Z,67.72
2023-01-02T06:48:35.726Z,67.71
2023-01-02T06:51:26.833Z,67.68
2023-01-02T06:54:18.363Z,67.74
2023-01-02T06:57:05.287Z,67.91
2023-01-02T07:00:05.533Z,68.06
2023-01-02T07:02:47.288Z,68.04
2023-01-02T07:05:24.589Z,68.05
2023-01-02T07:07:58.731Z,68.00
2023-01-02T07:10:32.377Z,68.03
2023-01-02T07:13:13.427Z,67.94
2023-01-02T07:16:13.299Z,67.93
2023-01-02T07:19:25.593Z,67.81
2023-01-02T07:21:58.624Z,67.86
2023-01-02T07:24:28.536Z,67.78
2023-01-02T07:26:58.349Z,67.64
2023-01-02T07:29:28.247Z,67.65
2023-01-02T07:31:58.211Z,67.58
2023-01-02T07:34:29.425Z,67.52
2023-01-02T07:36:59.078Z,67.37
2023-01-02T07:39:29.087Z,67.41
2023-01-02T07:41:58.963Z,67.41
2023-01-02T07:44:29.132Z,67.42
2023-01-02T07:47:00.882Z,67.42
2023-01-02T07:49:50.926Z,67.27
2023-01-02T07:52:20.701Z,67.41
2023-01-02T07:54:50.552Z,67.34
2023-01-02T07:57:20.396Z,67.19
2023-01-02T07:59:50.573Z,67.05
2023-01-02T08:02:22.519Z,67.11
2023-01-02T08:05:00.722Z,67.19
2023-01-02T08:07:45.325Z,67.23
2023-01-02T08:10:21.207Z,67.16
2023-01-02T08:12:57.558Z,67.15
2023-01-02T08:15:27.190Z,67.02
2023-01-02T08:17:58.498Z,66.82
2023-01-02T08:20:28.061Z,66.84
2023-01-02T08:22:57.699Z,66.78
2023-01-02T08:25:27.510Z,66.62
2023-01-02T08:28:01.492Z,66.65
2023-01-02T08:30:32.910Z,66.62
2023-01-02T08:33:05.225Z,66.57
2023-01-02T08:35:38.303Z,66.36
2023-01-02T08:38:08.558Z,66.37
2023-01-02T08:40:38.151Z,66.25
2023-01-02T08:43:08.922Z,66.17
2023-01-02T08:45:39.331Z,66.14
2023-01-02T08:48:20.823Z,66.01
2023-01-02T08:50:51.411Z,65.83
2023-01-02T08:53:21.047Z,65.61
2023-01-02T08:55:50.530Z,65.76
2023-01-02T08:58:19.758Z,65.68
2023-01-02T09:00:52.312Z,65.46
2023-01-02T09:03:21.818Z,65.53
2023-01-02T09:05:51.375Z,65.62
2023-01-02T09:08:23.002Z,65.49
2023-01-02T09:10:54.166Z,65.31
2023-01-02T09:13:28.879Z,65.14
2023-01-02T09:15:58.426Z,64.84
2023-01-02T09:18:29.693Z,64.76
2023-01-02T09:20:59.382Z,64.83
2023-01-02T09:23:35.335Z,65.03
2023-01-02T09:26:34.258Z,64.95
2023-01-02T09:29:09.301Z,65.07
2023-01-02T09:31:43.176Z,64.93
2023-01-02T09:34:21.304Z,64.65
2023-01-02T09:37:19.692Z,64.57
2023-01-02T09:40:18.314Z,64.39
2023-01-02T09:43:29.128Z,64.23
2023-01-02T09:47:00.563Z,63.78
2023-01-02T09:50:12.122Z,63.83
2023-01-02T09:53:08.465Z,63.89
2023-01-02T09:56:07.936Z,63.92
2023-01-02T09:59:32.432Z,63.89
2023-01-02T10:02:30.775Z,63.99
2023-01-02T10:05:45.161Z,64.00
2023-01-02T10:09:09.487Z,64.36
2023-01-02T10:12:51.743Z,64.26
2023-01-02T10:15:37.318Z,64.20
2023-01-02T10:18:45.676Z,64.10
2023-01-02T10:21:47.462Z,63.87
2023-01-02T10:24:53.437Z,63.50
2023-01-02T10:28:01.691Z,62.62
2023-01-02T10:31:20.303Z,62.58
2023-01-02T10:34:13.220Z,62.47
2023-01-02T10:37:31.965Z,62.27
2023-01-02T10:40:37.196Z,61.85
2023-01-02T10:43:18.844Z,61.41
2023-01-02T10:46:05.216Z,61.13
2023-01-02T10:48:50.170Z,60.86
2023-01-02T10:52:26.418Z,60.54
2023-01-02T10:55:57.876Z,60.38
2023-01-02T10:58:54.718Z,60.27
2023-01-02T11:01:51.299Z,60.12
2023-01-02T11:04:36.297Z,59.93
2023-01-02T11:07:34.363Z,59.95
2023-01-02T11:10:27.779Z,59.98
2023-01-02T11:13:02.284Z,59.84
2023-01-02T11:15:35.267Z,59.94
2023-01-02T11:18:17.532Z,59.87
2023-01-02T11:20:53.848Z,59.75
2023-01-02T11:23:26.331Z,59.60
2023-01-02T11:25:57.085Z,59.74
2023-01-02T11:28:34.884Z,59.76
2023-01-02T11:31:13.004Z,59.82
2023-01-02T11:33:47.390Z,60.04
2023-01-02T11:36:20.013Z,60.03
2023-01-02T11:39:23.660Z,60.15
2023-01-02T11:42:44.288Z,60.47
2023-01-02T11:45:19.000Z,60.72
2023-01-02T11:48:18.598Z,60.73
2023-01-02T11:50:53.459Z,60.70
2023-01-02T11:53:39.175Z,60.24
2023-01-02T11:56:33.840Z,60.20
2023-01-02T11:59:15.223Z,60.05
2023-01-02T12:02:20.260Z,60.16
2023-01-02T12:04:50.149Z,60.16
2023-01-02T12:08:03.669Z,59.89
2023-01-02T12:11:02.637Z,59.73
2023-01-02T12:14:09.122Z,59.53
2023-01-02T12:16:52.721Z,59.08
2023-01-02T12:20:05.466Z,58.77
2023-01-02T12:22:56.523Z,58.59
2023-01-02T12:26:09.132Z,58.57
2023-01-02T12:29:46.213Z,58.30
2023-01-02T12:33:25.205Z,58.05
2023-01-02T12:36:32.325Z,57.59
2023-01-02T12:40:22.907Z,57.45
2023-01-02T12:43:16.616Z,57.33
2023-01-02T12:46:19.638Z,57.09
2023-01-02T12:49:35.579Z,56.90
2023-01-02T12:52:43.348Z,56.66
2023-01-02T12:55:48.816Z,56.36
2023-01-02T12:58:29.087Z,56.33
2023-01-02T13:01:22.054Z,56.31
2023-01-02T13:04:45.572Z,56.25
2023-01-02T13:07:35.436Z,56.45
2023-01-02T13:10:06.942Z,56.51
2023-01-02T13:12:37.286Z,56.70
2023-01-02T13:15:31.085Z,56.84
2023-01-02T13:18:16.492Z,56.90
2023-01-02T13:21:03.553Z,56.85
2023-01-02T13:23:36.338Z,56.77
2023-01-02T13:26:14.816Z,56.75
2023-01-02T13:29:25.566Z,56.59
2023-01-02T13:31:56.521Z,56.60
2023-01-02T13:34:37.263Z,56.40
2023-01-02T13:37:20.930Z,56.36
2023-01-02T13:40:09.860Z,56.28
2023-01-02T13:43:04.636Z,56.47
2023-01-02T13:45:55.728Z,56.51
2023-01-02T13:48:48.093Z,56.27
2023-01-02T13:51:38.939Z,56.33
2023-01-02T13:54:37.936Z,56.40
2023-01-02T13:57:28.375Z,56.38
2023-01-02T14:00:05.728Z,56.23
2023-01-02T14:02:41.388Z,56.18
2023-01-02T14:05:59.996Z,56.44
2023-01-02T14:09:00.380Z,56.53
2023-01-02T14:12:00.465Z,56.79
2023-01-02T14:14:34.816Z,57.03
2023-01-02T14:17:44.672Z,57.24
2023-01-02T14:20:33.637Z,57.52
2023-01-02T14:23:33.089Z,57.69
2023-01-02T14:26:34.361Z,57.80
2023-01-02T14:29:31.646Z,57.94
2023-01-02T14:32:28.861Z,58.19
2023-01-02T14:35:38.326Z,58.44
2023-01-02T14:38:20.641Z,58.64
2023-01-02T14:41:20.307Z,58.69
2023-01-02T14:44:09.882Z,58.86
2023-01-02T14:46:54.195Z,58.94
2023-01-02T14:49:28.901Z,59.04
2023-01-02T14:52:13.236Z,59.17
2023-01-02T14:55:06.232Z,59.02
2023-01-02T14:57:56.048Z,59.21
2023-01-02T15:00:36.714Z,59.33
2023-01-02T15:04:05.176Z,59.27
2023-01-02T15:06:51.824Z,59.22
2023-01-02T15:09:51.535Z,59.42
2023-01-02T15:13:08.069Z,59.41
2023-01-02T15:16:06.350Z,59.44
2023-01-02T15:18:45.487Z,59.46
2023-01-02T15:21:30.635Z,59.45
2023-01-02T15:24:12.837Z,59.32
2023-01-02T15:27:28.281Z,59.39
2023-01-02T15:30:17.329Z,59.38
2023-01-02T15:32:49.676Z,59.39
2023-01-02T15:35:29.227Z,59.55
2023-01-02T15:38:00.996Z,59.59
2023-01-02T15:40:38.152Z,59.59
2023-01-02T15:43:33.565Z,59.58
2023-01-02T15:49:03.830Z,59.50
2023-01-02T15:51:56.942Z,59.48
2023-01-02T15:54:37.269Z,59.61
2023-01-02T15:57:17.522Z,59.56
2023-01-02T15:59:59.470Z,59.45
2023-01-02T16:02:46.656Z,59.56
2023-01-02T16:05:22.661Z,59.44
2023-01-02T16:07:58.659Z,59.50
2023-01-02T16:10:30.665Z,59.54
2023-01-02T16:13:25.651Z,59.52
2023-01-02T16:16:16.085Z,59.64
2023-01-02T16:19:00.478Z,59.64
2023-01-02T16:21:32.747Z,59.69
2023-01-02T16:24:02.080Z,59.66
2023-01-02T16:26:44.920Z,59.65
2023-01-02T16:29:24.308Z,59.63
2023-01-02T16:32:04.868Z,59.60
2023-01-02T16:34:40.196Z,59.59
2023-01-02T16:37:17.847Z,59.56
2023-01-02T16:39:49.476Z,59.47
2023-01-02T16:42:37.032Z,59.45
2023-01-02T16:45:07.384Z,59.53
2023-01-02T16:47:43.838Z,59.51
2023-01-02T16:50:30.099Z,59.43
2023-01-02T16:53:07.551Z,59.49
2023-01-02T16:55:37.124Z,59.56
2023-01-02T16:58:08.598Z,59.57
2023-01-02T17:00:43.425Z,59.55
2023-01-02T17:03:24.035Z,59.65
2023-01-02T17:06:12.859Z,59.55
2023-01-02T17:08:42.359Z,59.55
2023-01-02T17:11:25.359Z,59.55
2023-01-02T17:13:59.609Z,59.73
2023-01-02T17:16:29.436Z,59.85
2023-01-02T17:18:59.460Z,59.86
2023-01-02T17:21:32.686Z,59.83
2023-01-02T17:24:02.616Z,59.90
2023-01-02T17:26:35.031Z,59.90
2023-01-02T17:29:07.567Z,59.90
2023-01-02T17:31:38.466Z,59.84
2023-01-02T17:34:08.145Z,59.82
2023-01-02T17:36:37.835Z,59.92
2023-01-02T17:39:07.695Z,60.00
2023-01-02T17:41:37.461Z,59.95
2023-01-02T17:44:09.263Z,59.84
2023-01-02T17:49:36.920Z,60.11
2023-01-02T17:52:08.934Z,60.21
2023-01-02T17:54:41.653Z,60.08
2023-01-02T17:57:11.687Z,59.98
2023-01-02T17:59:43.969Z,59.98
2023-01-02T18:02:19.526Z,59.97
2023-01-02T18:04:54.972Z,59.99
2023-01-02T18:07:27.181Z,59.95
2023-01-02T18:10:07.390Z,59.93
2023-01-02T18:12:39.773Z,59.87
2023-01-02T18:15:15.310Z,59.93
2023-01-02T18:17:48.440Z,59.89
2023-01-02T18:20:21.974Z,59.83
2023-01-02T18:22:54.027Z,59.71
2023-01-02T18:25:31.004Z,59.73
2023-01-02T18:28:27.863Z,59.60
2023-01-02T18:31:00.816Z,59.71
2023-01-02T18:33:30.945Z,59.70
2023-01-02T18:36:09.448Z,59.70
2023-01-02T18:38:44.967Z,59.78
2023-01-02T18:41:32.262Z,59.67
2023-01-02T18:44:23.321Z,59.63
2023-01-02T18:47:15.878Z,59.69
2023-01-02T18:49:45.633Z,59.60
2023-01-02T18:52:17.213Z,59.60
2023-01-02T18:54:58.869Z,59.62
2023-01-02T18:57:36.446Z,59.59
2023-01-02T19:00:21.597Z,59.45
2023-01-02T19:03:09.187Z,59.28
2023-01-02T19:05:46.815Z,59.29
2023-01-02T19:08:23.993Z,59.42
2023-01-02T19:10:56.508Z,59.52
2023-01-02T19:13:32.525Z,59.10
2023-01-02T19:16:28.296Z,59.13
2023-01-02T19:18:57.526Z,59.33
2023-01-02T19:21:35.903Z,59.22
2023-01-02T19:24:05.061Z,59.20
2023-01-02T19:26:50.078Z,59.16
2023-01-02T19:29:35.340Z,59.08
2023-01-02T19:32:31.328Z,59.06
2023-01-02T19:35:27.365Z,58.99
2023-01-02T19:37:57.549Z,58.85
2023-01-02T19:40:27.343Z,58.84
2023-01-02T19:42:57.163Z,58.75
2023-01-02T19:45:28.138Z,58.62
2023-01-02T19:47:58.435Z,58.66
2023-01-02T19:50:29.430Z,58.67
2023-01-02T19:53:00.992Z,58.58
2023-01-02T19:55:30.932Z,58.53
2023-01-02T19:58:00.691Z,58.54
2023-01-02T20:00:32.099Z,58.53
2023-01-02T20:03:02.962Z,58.44
2023-01-02T20:06:08.876Z,58.51
2023-01-02T20:08:39.475Z,58.48
2023-01-02T20:11:32.410Z,58.62
2023-01-02T20:14:11.379Z,58.63
2023-01-02T20:16:47.208Z,58.62
2023-01-02T20:19:16.967Z,58.66
2023-01-02T20:21:46.954Z,58.52
2023-01-02T20:24:21.892Z,58.44
2023-01-02T20:26:53.384Z,58.48
2023-01-02T20:29:24.496Z,58.51
2023-01-02T20:31:59.867Z,58.32
2023-01-02T20:34:33.655Z,58.44
2023-01-02T20:37:03.741Z,58.53
2023-01-02T20:39:37.313Z,58.49
2023-01-02T20:42:23.491Z,58.56
2023-01-02T20:45:00.397Z,58.52
2023-01-02T20:47:51.399Z,58.61
2023-01-02T20:50:27.896Z,58.72
2023-01-02T20:53:00.379Z,58.65
2023-01-02T20:55:30.259Z,58.83
2023-01-02T20:58:10.331Z,58.77
2023-01-02T21:00:44.554Z,58.85
2023-01-02T21:03:20.868Z,58.91
2023-01-02T21:06:00.760Z,58.78
2023-01-02T21:08:31.313Z,58.83
2023-01-02T21:11:11.762Z,58.89
2023-01-02T21:13:50.903Z,58.82
2023-01-02T21:16:25.268Z,58.73
2023-01-02T21:19:08.540Z,58.85
2023-01-02T21:21:42.330Z,58.91
2023-01-02T21:24:12.654Z,58.67
2023-01-02T21:26:43.504Z,58.61
2023-01-02T21:29:19.439Z,58.30
2023-01-02T21:31:58.594Z,58.09
2023-01-02T21:34:39.468Z,58.04
2023-01-02T21:37:10.830Z,58.19
2023-01-02T21:39:54.321Z,57.98
2023-01-02T21:42:46.677Z,58.06
2023-01-02T21:45:25.799Z,58.09
2023-01-02T21:47:59.303Z,58.05
2023-01-02T21:50:31.652Z,58.07
2023-01-02T21:53:01.996Z,57.99
2023-01-02T21:55:40.002Z,57.97
2023-01-02T21:58:21.401Z,58.07
2023-01-02T22:00:55.868Z,58.06
2023-01-02T22:03:34.775Z,58.12
2023-01-02T22:06:28.607Z,58.14
2023-01-02T22:09:32.444Z,58.13
2023-01-02T22:12:07.545Z,58.00
2023-01-02T22:14:41.314Z,58.03
2023-01-02T22:17:32.129Z,58.04
2023-01-02T22:20:05.124Z,57.95
2023-01-02T22:22:38.239Z,57.94
2023-01-02T22:25:20.045Z,57.97
2023-01-02T22:27:55.812Z,57.88
2023-01-02T22:30:34.622Z,57.95
2023-01-02T22:33:08.143Z,57.91
2023-01-02T22:36:13.441Z,57.95
2023-01-02T22:39:26.992Z,57.96
2023-01-02T22:42:58.340Z,57.89
2023-01-02T22:45:32.989Z,58.14
2023-01-02T22:48:34.003Z,58.03
2023-01-02T22:51:10.530Z,58.02
2023-01-02T22:53:50.670Z,57.97
2023-01-02T22:56:27.470Z,58.05
2023-01-02T22:59:02.625Z,58.06
2023-01-02T23:02:02.970Z,58.10
2023-01-02T23:04:36.339Z,58.32
2023-01-02T23:07:26.371Z,58.37
2023-01-02T23:10:02.911Z,58.24
2023-01-02T23:12:38.817Z,58.16
2023-01-02T23:15:12.484Z,58.32
2023-01-02T23:18:01.724Z,58.26
2023-01-02T23:20:36.402Z,58.33
2023-01-02T23:23:09.316Z,58.31
2023-01-02T23:25:43.569Z,58.15
2023-01-02T23:29:05.130Z,58.32
2023-01-02T23:31:34.726Z,58.30
2023-01-02T23:34:05.856Z,58.18
2023-01-02T23:36:42.805Z,58.24
2023-01-02T23:39:26.135Z,58.26
2023-01-02T23:42:00.898Z,58.32
2023-01-02T23:44:39.956Z,58.29
2023-01-02T23:47:18.678Z,58.23
2023-01-02T23:49:57.822Z,58.35
2023-01-02T23:52:35.149Z,58.38
2023-01-02T23:55:26.463Z,58.40
